sensor_id;sensor_type;location;lat;lon;timestamp;pressure;altitude;pressure_sealevel;temperature;humidity
46942;BME280;32676;52.630;4.896;2023-04-22T00:00:43;101535.53;;;9.93;84.12
46942;BME280;32676;52.630;4.896;2023-04-22T00:03:09;101505.00;;;9.88;83.82
46942;BME280;32676;52.630;4.896;2023-04-22T00:05:35;101485.88;;;9.81;83.60
46942;BME280;32676;52.630;4.896;2023-04-22T00:08:02;101465.81;;;9.77;83.70
46942;BME280;32676;52.630;4.896;2023-04-22T00:10:30;101450.97;;;9.74;83.65
46942;BME280;32676;52.630;4.896;2023-04-22T00:12:56;101441.41;;;9.72;83.56
46942;BME280;32676;52.630;4.896;2023-04-22T00:15:22;101422.28;;;9.67;83.65
46942;BME280;32676;52.630;4.896;2023-04-22T00:17:50;101413.56;;;9.65;84.02
46942;BME280;32676;52.630;4.896;2023-04-22T00:20:17;101408.31;;;9.65;84.24
46942;BME280;32676;52.630;4.896;2023-04-22T00:22:45;101401.31;;;9.64;84.21
46942;BME280;32676;52.630;4.896;2023-04-22T00:25:11;101384.81;;;9.58;84.36
46942;BME280;32676;52.630;4.896;2023-04-22T00:27:39;101365.63;;;9.55;84.48
46942;BME280;32676;52.630;4.896;2023-04-22T00:30:06;101352.63;;;9.50;84.73
46942;BME280;32676;52.630;4.896;2023-04-22T00:32:33;101343.91;;;9.48;84.57
46942;BME280;32676;52.630;4.896;2023-04-22T00:34:59;101345.63;;;9.49;84.60
46942;BME280;32676;52.630;4.896;2023-04-22T00:37:26;101331.69;;;9.47;84.75
46942;BME280;32676;52.630;4.896;2023-04-22T00:39:52;101318.66;;;9.43;84.75
46942;BME280;32676;52.630;4.896;2023-04-22T00:42:18;101306.47;;;9.40;84.78
46942;BME280;32676;52.630;4.896;2023-04-22T00:44:47;101287.31;;;9.36;84.93
46942;BME280;32676;52.630;4.896;2023-04-22T00:47:16;101281.25;;;9.33;84.89
46942;BME280;32676;52.630;4.896;2023-04-22T00:49:42;101269.94;;;9.31;85.23
46942;BME280;32676;52.630;4.896;2023-04-22T00:52:09;101250.78;;;9.26;85.34
46942;BME280;32676;52.630;4.896;2023-04-22T00:54:36;101230.78;;;9.21;85.36
46942;BME280;32676;52.630;4.896;2023-04-22T00:57:02;101199.47;;;9.15;85.38
46942;BME280;32676;52.630;4.896;2023-04-22T00:59:30;101190.75;;;9.13;85.55
46942;BME280;32676;52.630;4.896;2023-04-22T01:01:58;101183.84;;;9.09;85.68
46942;BME280;32676;52.630;4.896;2023-04-22T01:04:25;101167.31;;;9.06;85.89
46942;BME280;32676;52.630;4.896;2023-04-22T01:06:51;101145.63;;;8.99;85.85
46942;BME280;32676;52.630;4.896;2023-04-22T01:09:18;101146.44;;;9.01;86.02
46942;BME280;32676;52.630;4.896;2023-04-22T01:11:45;101152.53;;;9.01;86.17
46942;BME280;32676;52.630;4.896;2023-04-22T01:14:12;101156.91;;;9.02;86.27
46942;BME280;32676;52.630;4.896;2023-04-22T01:16:38;101148.22;;;9.00;86.27
46942;BME280;32676;52.630;4.896;2023-04-22T01:19:08;101143.81;;;9.01;86.40
46942;BME280;32676;52.630;4.896;2023-04-22T01:21:35;101125.59;;;8.95;86.22
46942;BME280;32676;52.630;4.896;2023-04-22T01:24:05;101113.44;;;8.92;86.35
46942;BME280;32676;52.630;4.896;2023-04-22T01:26:31;101107.31;;;8.92;86.32
46942;BME280;32676;52.630;4.896;2023-04-22T01:29:00;101095.13;;;8.89;86.28
46942;BME280;32676;52.630;4.896;2023-04-22T01:31:26;101089.91;;;8.88;86.16
46942;BME280;32676;52.630;4.896;2023-04-22T01:33:53;101082.13;;;8.86;86.33
46942;BME280;32676;52.630;4.896;2023-04-22T01:36:19;101088.22;;;8.87;86.41
46942;BME280;32676;52.630;4.896;2023-04-22T01:38:46;101095.16;;;8.88;86.57
46942;BME280;32676;52.630;4.896;2023-04-22T01:41:13;101088.22;;;8.87;86.49
46942;BME280;32676;52.630;4.896;2023-04-22T01:43:40;101098.63;;;8.90;86.57
46942;BME280;32676;52.630;4.896;2023-04-22T01:46:06;101082.97;;;8.87;86.39
46942;BME280;32676;52.630;4.896;2023-04-22T01:48:33;101070.84;;;8.82;86.21
46942;BME280;32676;52.630;4.896;2023-04-22T01:50:59;101062.16;;;8.80;86.21
46942;BME280;32676;52.630;4.896;2023-04-22T01:53:26;101056.03;;;8.80;86.37
46942;BME280;32676;52.630;4.896;2023-04-22T01:55:53;101043.91;;;8.76;86.33
46942;BME280;32676;52.630;4.896;2023-04-22T01:58:21;101036.06;;;8.74;86.33
46942;BME280;32676;52.630;4.896;2023-04-22T02:00:47;101030.81;;;8.74;86.53
46942;BME280;32676;52.630;4.896;2023-04-22T02:03:13;101024.75;;;8.72;86.38
46942;BME280;32676;52.630;4.896;2023-04-22T02:05:39;101017.78;;;8.71;86.33
46942;BME280;32676;52.630;4.896;2023-04-22T02:08:06;101014.34;;;8.68;86.13
46942;BME280;32676;52.630;4.896;2023-04-22T02:10:32;100995.19;;;8.65;85.93
46942;BME280;32676;52.630;4.896;2023-04-22T02:12:58;100983.94;;;8.62;85.80
46942;BME280;32676;52.630;4.896;2023-04-22T02:15:26;100969.22;;;8.56;85.79
46942;BME280;32676;52.630;4.896;2023-04-22T02:17:52;100950.03;;;8.54;85.90
46942;BME280;32676;52.630;4.896;2023-04-22T02:20:19;100935.28;;;8.52;85.97
46942;BME280;32676;52.630;4.896;2023-04-22T02:22:45;100930.09;;;8.49;86.08
46942;BME280;32676;52.630;4.896;2023-04-22T02:25:11;100917.03;;;8.47;86.07
46942;BME280;32676;52.630;4.896;2023-04-22T02:27:38;100901.44;;;8.41;86.22
46942;BME280;32676;52.630;4.896;2023-04-22T02:30:05;100904.06;;;8.42;86.33
46942;BME280;32676;52.630;4.896;2023-04-22T02:32:33;100911.00;;;8.43;86.57
46942;BME280;32676;52.630;4.896;2023-04-22T02:35:00;100905.75;;;8.43;86.72
46942;BME280;32676;52.630;4.896;2023-04-22T02:37:27;100902.28;;;8.41;86.81
46942;BME280;32676;52.630;4.896;2023-04-22T02:39:53;100884.94;;;8.37;86.83
46942;BME280;32676;52.630;4.896;2023-04-22T02:42:19;100857.16;;;8.30;86.52
46942;BME280;32676;52.630;4.896;2023-04-22T02:44:46;100836.28;;;8.27;86.61
46942;BME280;32676;52.630;4.896;2023-04-22T02:47:12;100825.00;;;8.25;86.48
46942;BME280;32676;52.630;4.896;2023-04-22T02:49:40;100803.28;;;8.20;86.22
46942;BME280;32676;52.630;4.896;2023-04-22T02:52:06;100792.91;;;8.17;86.15
46942;BME280;32676;52.630;4.896;2023-04-22T02:54:32;100782.50;;;8.14;86.06
46942;BME280;32676;52.630;4.896;2023-04-22T02:56:59;100756.44;;;8.07;85.82
46942;BME280;32676;52.630;4.896;2023-04-22T02:59:25;100746.97;;;8.03;85.65
46942;BME280;32676;52.630;4.896;2023-04-22T03:01:51;100714.81;;;7.98;85.44
46942;BME280;32676;52.630;4.896;2023-04-22T03:04:18;100701.00;;;7.93;85.41
46942;BME280;32676;52.630;4.896;2023-04-22T03:06:47;100678.38;;;7.89;85.36
46942;BME280;32676;52.630;4.896;2023-04-22T03:09:13;100690.59;;;7.90;85.54
46942;BME280;32676;52.630;4.896;2023-04-22T03:11:39;100702.69;;;7.94;85.89
46942;BME280;32676;52.630;4.896;2023-04-22T03:14:06;100705.28;;;7.96;86.25
46942;BME280;32676;52.630;4.896;2023-04-22T03:16:32;100721.78;;;7.98;86.60
46942;BME280;32676;52.630;4.896;2023-04-22T03:18:58;100730.44;;;8.01;86.84
46942;BME280;32676;52.630;4.896;2023-04-22T03:21:25;100740.84;;;8.04;87.08
46942;BME280;32676;52.630;4.896;2023-04-22T03:23:53;100746.06;;;8.04;87.24
46942;BME280;32676;52.630;4.896;2023-04-22T03:26:20;100730.44;;;8.01;87.24
46942;BME280;32676;52.630;4.896;2023-04-22T03:28:46;100728.69;;;8.00;87.30
46942;BME280;32676;52.630;4.896;2023-04-22T03:31:12;100735.66;;;8.01;87.15
46942;BME280;32676;52.630;4.896;2023-04-22T03:33:38;100739.09;;;8.03;86.98
46942;BME280;32676;52.630;4.896;2023-04-22T03:36:05;100742.63;;;8.02;87.16
46942;BME280;32676;52.630;4.896;2023-04-22T03:38:31;100741.75;;;8.02;87.04
46942;BME280;32676;52.630;4.896;2023-04-22T03:40:59;100729.59;;;8.01;87.12
46942;BME280;32676;52.630;4.896;2023-04-22T03:43:25;100725.25;;;7.98;87.02
46942;BME280;32676;52.630;4.896;2023-04-22T03:45:51;100711.38;;;7.96;87.03
46942;BME280;32676;52.630;4.896;2023-04-22T03:48:18;100701.84;;;7.94;86.97
46942;BME280;32676;52.630;4.896;2023-04-22T03:50:44;100683.63;;;7.89;86.87
46942;BME280;32676;52.630;4.896;2023-04-22T03:53:10;100668.09;;;7.83;86.80
46942;BME280;32676;52.630;4.896;2023-04-22T03:55:37;100650.69;;;7.80;86.77
46942;BME280;32676;52.630;4.896;2023-04-22T03:58:04;100647.22;;;7.80;86.58
46942;BME280;32676;52.630;4.896;2023-04-22T04:00:31;100637.69;;;7.77;86.51
46942;BME280;32676;52.630;4.896;2023-04-22T04:02:57;100629.88;;;7.76;86.58
46942;BME280;32676;52.630;4.896;2023-04-22T04:05:23;100619.50;;;7.73;86.56
46942;BME280;32676;52.630;4.896;2023-04-22T04:07:50;100614.28;;;7.71;86.60
46942;BME280;32676;52.630;4.896;2023-04-22T04:10:16;100609.13;;;7.69;86.74
46942;BME280;32676;52.630;4.896;2023-04-22T04:12:42;100595.25;;;7.66;86.78
46942;BME280;32676;52.630;4.896;2023-04-22T04:15:10;100577.06;;;7.61;86.54
46942;BME280;32676;52.630;4.896;2023-04-22T04:17:36;100571.00;;;7.59;86.77
46942;BME280;32676;52.630;4.896;2023-04-22T04:20:03;100556.25;;;7.57;86.73
46942;BME280;32676;52.630;4.896;2023-04-22T04:22:29;100540.69;;;7.52;86.71
46942;BME280;32676;52.630;4.896;2023-04-22T04:24:56;100544.91;;;7.56;86.71
46942;BME280;32676;52.630;4.896;2023-04-22T04:27:22;100541.50;;;7.54;86.78
46942;BME280;32676;52.630;4.896;2023-04-22T04:29:48;100546.72;;;7.54;86.76
46942;BME280;32676;52.630;4.896;2023-04-22T04:32:17;100539.78;;;7.53;86.89
46942;BME280;32676;52.630;4.896;2023-04-22T04:34:44;100531.09;;;7.51;86.74
46942;BME280;32676;52.630;4.896;2023-04-22T04:37:10;100520.75;;;7.48;86.80
46942;BME280;32676;52.630;4.896;2023-04-22T04:39:36;100510.31;;;7.46;86.86
46942;BME280;32676;52.630;4.896;2023-04-22T04:42:03;100494.72;;;7.42;86.62
46942;BME280;32676;52.630;4.896;2023-04-22T04:44:29;100486.06;;;7.40;86.67
46942;BME280;32676;52.630;4.896;2023-04-22T04:46:56;100475.69;;;7.37;86.56
46942;BME280;32676;52.630;4.896;2023-04-22T04:49:24;100467.91;;;7.35;86.64
46942;BME280;32676;52.630;4.896;2023-04-22T04:51:50;100468.75;;;7.36;86.62
46942;BME280;32676;52.630;4.896;2023-04-22T04:54:16;100473.06;;;7.37;86.58
46942;BME280;32676;52.630;4.896;2023-04-22T04:56:43;100474.78;;;7.38;86.70
46942;BME280;32676;52.630;4.896;2023-04-22T04:59:09;100482.63;;;7.38;86.74
46942;BME280;32676;52.630;4.896;2023-04-22T05:01:35;100480.00;;;7.39;86.73
46942;BME280;32676;52.630;4.896;2023-04-22T05:04:02;100487.81;;;7.41;86.78
46942;BME280;32676;52.630;4.896;2023-04-22T05:06:29;100503.38;;;7.44;86.80
46942;BME280;32676;52.630;4.896;2023-04-22T05:08:56;100521.59;;;7.48;86.94
46942;BME280;32676;52.630;4.896;2023-04-22T05:11:23;100539.78;;;7.53;87.02
46942;BME280;32676;52.630;4.896;2023-04-22T05:13:49;100564.03;;;7.58;87.20
46942;BME280;32676;52.630;4.896;2023-04-22T05:16:15;100581.41;;;7.62;87.21
46942;BME280;32676;52.630;4.896;2023-04-22T05:18:42;100604.78;;;7.68;87.46
46942;BME280;32676;52.630;4.896;2023-04-22T05:21:08;100623.88;;;7.72;87.62
46942;BME280;32676;52.630;4.896;2023-04-22T05:23:36;100639.47;;;7.77;87.70
46942;BME280;32676;52.630;4.896;2023-04-22T05:26:02;100666.34;;;7.82;87.82
46942;BME280;32676;52.630;4.896;2023-04-22T05:28:28;100687.16;;;7.88;87.89
46942;BME280;32676;52.630;4.896;2023-04-22T05:30:54;100716.69;;;7.93;88.02
46942;BME280;32676;52.630;4.896;2023-04-22T05:33:21;100719.19;;;7.98;88.17
46942;BME280;32676;52.630;4.896;2023-04-22T05:35:47;100735.72;;;7.98;88.04
46942;BME280;32676;52.630;4.896;2023-04-22T05:38:15;100747.00;;;8.02;88.07
46942;BME280;32676;52.630;4.896;2023-04-22T05:40:42;100765.22;;;8.06;88.06
46942;BME280;32676;52.630;4.896;2023-04-22T05:43:09;100780.84;;;8.10;87.90
46942;BME280;32676;52.630;4.896;2023-04-22T05:45:35;100779.06;;;8.12;87.84
46942;BME280;32676;52.630;4.896;2023-04-22T05:48:01;100796.41;;;8.16;87.54
46942;BME280;32676;52.630;4.896;2023-04-22T05:50:28;100815.56;;;8.18;87.60
46942;BME280;32676;52.630;4.896;2023-04-22T05:52:54;100833.78;;;8.22;87.69
46942;BME280;32676;52.630;4.896;2023-04-22T05:55:21;100857.22;;;8.27;87.42
46942;BME280;32676;52.630;4.896;2023-04-22T05:57:48;100879.81;;;8.31;87.63
46942;BME280;32676;52.630;4.896;2023-04-22T06:00:16;100889.31;;;8.37;87.61
46942;BME280;32676;52.630;4.896;2023-04-22T06:02:42;100928.44;;;8.44;87.78
46942;BME280;32676;52.630;4.896;2023-04-22T06:05:08;100951.00;;;8.52;87.86
46942;BME280;32676;52.630;4.896;2023-04-22T06:07:35;100982.28;;;8.58;87.99
46942;BME280;32676;52.630;4.896;2023-04-22T06:10:01;101006.63;;;8.63;87.95
46942;BME280;32676;52.630;4.896;2023-04-22T06:12:28;101032.66;;;8.69;88.14
46942;BME280;32676;52.630;4.896;2023-04-22T06:14:56;101060.47;;;8.76;88.14
46942;BME280;32676;52.630;4.896;2023-04-22T06:17:22;101077.88;;;8.80;88.05
46942;BME280;32676;52.630;4.896;2023-04-22T06:19:48;101102.19;;;8.86;88.03
46942;BME280;32676;52.630;4.896;2023-04-22T06:22:15;101131.78;;;8.91;88.20
46942;BME280;32676;52.630;4.896;2023-04-22T06:24:41;101153.50;;;8.97;88.04
46942;BME280;32676;52.630;4.896;2023-04-22T06:27:07;101180.47;;;9.04;88.19
46942;BME280;32676;52.630;4.896;2023-04-22T06:29:34;101206.56;;;9.10;88.14
46942;BME280;32676;52.630;4.896;2023-04-22T06:32:01;101235.22;;;9.18;88.13
46942;BME280;32676;52.630;4.896;2023-04-22T06:34:28;101262.19;;;9.25;88.16
46942;BME280;32676;52.630;4.896;2023-04-22T06:36:54;101274.34;;;9.29;87.97
46942;BME280;32676;52.630;4.896;2023-04-22T06:39:21;101301.31;;;9.35;88.15
46942;BME280;32676;52.630;4.896;2023-04-22T06:41:47;101333.53;;;9.42;88.13
46942;BME280;32676;52.630;4.896;2023-04-22T06:44:14;101375.31;;;9.51;87.89
46942;BME280;32676;52.630;4.896;2023-04-22T06:46:40;101385.75;;;9.54;87.86
46942;BME280;32676;52.630;4.896;2023-04-22T06:49:08;101411.00;;;9.60;87.56
46942;BME280;32676;52.630;4.896;2023-04-22T06:51:37;101438.00;;;9.67;87.33
46942;BME280;32676;52.630;4.896;2023-04-22T06:54:03;101451.94;;;9.70;87.22
46942;BME280;32676;52.630;4.896;2023-04-22T06:56:29;101481.56;;;9.77;87.14
46942;BME280;32676;52.630;4.896;2023-04-22T06:58:56;101507.69;;;9.83;87.20
46942;BME280;32676;52.630;4.896;2023-04-22T07:01:22;101532.97;;;9.89;86.70
46942;BME280;32676;52.630;4.896;2023-04-22T07:03:48;101558.25;;;9.94;86.63
46942;BME280;32676;52.630;4.896;2023-04-22T07:06:16;101602.69;;;10.05;86.63
46942;BME280;32676;52.630;4.896;2023-04-22T07:08:42;101629.72;;;10.12;86.41
46942;BME280;32676;52.630;4.896;2023-04-22T07:11:09;101634.06;;;10.13;86.28
46942;BME280;32676;52.630;4.896;2023-04-22T07:13:35;101648.88;;;10.17;86.12
46942;BME280;32676;52.630;4.896;2023-04-22T07:16:01;101678.53;;;10.22;85.79
46942;BME280;32676;52.630;4.896;2023-04-22T07:18:28;101697.72;;;10.27;85.68
46942;BME280;32676;52.630;4.896;2023-04-22T07:20:54;101716.94;;;10.32;85.17
46942;BME280;32676;52.630;4.896;2023-04-22T07:23:22;101760.56;;;10.43;85.08
46942;BME280;32676;52.630;4.896;2023-04-22T07:25:48;101771.00;;;10.46;85.24
46942;BME280;32676;52.630;4.896;2023-04-22T07:28:14;101792.81;;;10.52;85.06
46942;BME280;32676;52.630;4.896;2023-04-22T07:30:40;101826.84;;;10.60;84.78
46942;BME280;32676;52.630;4.896;2023-04-22T07:33:07;101865.28;;;10.67;84.68
46942;BME280;32676;52.630;4.896;2023-04-22T07:35:33;101896.75;;;10.73;84.62
46942;BME280;32676;52.630;4.896;2023-04-22T07:38:00;101937.75;;;10.84;84.32
46942;BME280;32676;52.630;4.896;2023-04-22T07:40:27;101956.06;;;10.90;84.44
46942;BME280;32676;52.630;4.896;2023-04-22T07:42:54;101998.00;;;10.99;84.05
46942;BME280;32676;52.630;4.896;2023-04-22T07:45:20;102051.31;;;11.12;84.11
46942;BME280;32676;52.630;4.896;2023-04-22T07:47:46;102087.13;;;11.21;84.21
46942;BME280;32676;52.630;4.896;2023-04-22T07:50:12;102118.59;;;11.27;84.05
46942;BME280;32676;52.630;4.896;2023-04-22T07:52:39;102153.53;;;11.38;83.74
46942;BME280;32676;52.630;4.896;2023-04-22T07:55:06;102182.44;;;11.43;83.49
46942;BME280;32676;52.630;4.896;2023-04-22T07:57:34;102177.16;;;11.43;83.10
46942;BME280;32676;52.630;4.896;2023-04-22T08:00:02;102216.53;;;11.50;82.10
46942;BME280;32676;52.630;4.896;2023-04-22T08:02:29;102267.28;;;11.62;82.13
46942;BME280;32676;52.630;4.896;2023-04-22T08:04:55;102312.72;;;11.75;82.19
46942;BME280;32676;52.630;4.896;2023-04-22T08:07:21;102342.50;;;11.81;82.06
46942;BME280;32676;52.630;4.896;2023-04-22T08:09:48;102377.50;;;11.89;82.00
46942;BME280;32676;52.630;4.896;2023-04-22T08:12:14;102422.19;;;11.99;81.82
46942;BME280;32676;52.630;4.896;2023-04-22T08:14:41;102434.47;;;12.03;81.28
46942;BME280;32676;52.630;4.896;2023-04-22T08:17:08;102472.09;;;12.14;81.12
46942;BME280;32676;52.630;4.896;2023-04-22T08:19:34;102522.94;;;12.22;81.53
46942;BME280;32676;52.630;4.896;2023-04-22T08:22:00;102570.22;;;12.35;81.27
46942;BME280;32676;52.630;4.896;2023-04-22T08:24:27;102614.91;;;12.47;81.02
46942;BME280;32676;52.630;4.896;2023-04-22T08:26:53;102664.91;;;12.56;80.91
46942;BME280;32676;52.630;4.896;2023-04-22T08:29:20;102692.97;;;12.63;80.64
46942;BME280;32676;52.630;4.896;2023-04-22T08:31:48;102698.22;;;12.66;79.87
46942;BME280;32676;52.630;4.896;2023-04-22T08:34:14;102715.75;;;12.71;78.78
46942;BME280;32676;52.630;4.896;2023-04-22T08:36:41;102736.78;;;12.77;77.85
46942;BME280;32676;52.630;4.896;2023-04-22T08:39:09;102768.38;;;12.83;77.19
46942;BME280;32676;52.630;4.896;2023-04-22T08:41:35;102783.28;;;12.87;77.43
46942;BME280;32676;52.630;4.896;2023-04-22T08:44:02;102827.19;;;12.97;77.11
46942;BME280;32676;52.630;4.896;2023-04-22T08:46:28;102896.53;;;13.12;76.42
46942;BME280;32676;52.630;4.896;2023-04-22T08:48:57;102935.13;;;13.22;75.84
46942;BME280;32676;52.630;4.896;2023-04-22T08:51:27;102951.81;;;13.27;75.41
46942;BME280;32676;52.630;4.896;2023-04-22T08:53:53;103000.16;;;13.38;75.72
46942;BME280;32676;52.630;4.896;2023-04-22T08:56:19;102993.13;;;13.37;75.30
46942;BME280;32676;52.630;4.896;2023-04-22T08:58:46;103001.91;;;13.39;74.60
46942;BME280;32676;52.630;4.896;2023-04-22T09:01:12;103015.06;;;13.44;75.13
46942;BME280;32676;52.630;4.896;2023-04-22T09:03:39;103049.34;;;13.52;75.33
46942;BME280;32676;52.630;4.896;2023-04-22T09:06:07;103079.22;;;13.57;75.16
46942;BME280;32676;52.630;4.896;2023-04-22T09:08:35;103113.47;;;13.68;75.10
46942;BME280;32676;52.630;4.896;2023-04-22T09:11:01;103147.78;;;13.75;75.54
46942;BME280;32676;52.630;4.896;2023-04-22T09:13:28;103170.63;;;13.82;75.59
46942;BME280;32676;52.630;4.896;2023-04-22T09:15:54;103227.78;;;13.96;75.18
46942;BME280;32676;52.630;4.896;2023-04-22T09:18:21;103275.28;;;14.04;74.60
46942;BME280;32676;52.630;4.896;2023-04-22T09:20:47;103292.00;;;14.10;74.87
46942;BME280;32676;52.630;4.896;2023-04-22T09:23:15;103324.53;;;14.17;74.06
46942;BME280;32676;52.630;4.896;2023-04-22T09:25:43;103317.50;;;14.17;73.25
46942;BME280;32676;52.630;4.896;2023-04-22T09:28:10;103326.31;;;14.19;72.03
46942;BME280;32676;52.630;4.896;2023-04-22T09:30:37;103353.59;;;14.25;72.22
46942;BME280;32676;52.630;4.896;2023-04-22T09:33:04;103390.56;;;14.34;71.04
46942;BME280;32676;52.630;4.896;2023-04-22T09:35:31;103451.28;;;14.48;71.40
46942;BME280;32676;52.630;4.896;2023-04-22T09:37:58;103450.41;;;14.50;71.07
46942;BME280;32676;52.630;4.896;2023-04-22T09:40:26;103469.78;;;14.55;70.44
46942;BME280;32676;52.630;4.896;2023-04-22T09:42:53;103487.44;;;14.59;70.80
46942;BME280;32676;52.630;4.896;2023-04-22T09:45:24;103502.38;;;14.65;71.09
46942;BME280;32676;52.630;4.896;2023-04-22T09:47:51;103506.81;;;14.65;69.50
46942;BME280;32676;52.630;4.896;2023-04-22T09:50:18;103552.59;;;14.76;68.47
46942;BME280;32676;52.630;4.896;2023-04-22T09:52:44;103595.78;;;14.87;69.66
46942;BME280;32676;52.630;4.896;2023-04-22T09:55:19;103623.09;;;14.92;69.48
46942;BME280;32676;52.630;4.896;2023-04-22T09:57:47;103640.72;;;15.00;68.63
46942;BME280;32676;52.630;4.896;2023-04-22T10:00:16;103626.63;;;14.94;67.29
46942;BME280;32676;52.630;4.896;2023-04-22T10:02:42;103655.69;;;15.04;67.46
46942;BME280;32676;52.630;4.896;2023-04-22T10:05:08;103697.16;;;15.14;68.23
46942;BME280;32676;52.630;4.896;2023-04-22T10:07:36;103670.66;;;15.08;67.49
46942;BME280;32676;52.630;4.896;2023-04-22T10:10:04;103637.16;;;15.01;67.21
46942;BME280;32676;52.630;4.896;2023-04-22T10:12:31;103643.31;;;15.04;67.40
46942;BME280;32676;52.630;4.896;2023-04-22T10:14:58;103662.72;;;15.09;67.45
46942;BME280;32676;52.630;4.896;2023-04-22T10:17:25;103680.38;;;15.12;67.33
46942;BME280;32676;52.630;4.896;2023-04-22T10:19:53;103693.59;;;15.18;67.46
46942;BME280;32676;52.630;4.896;2023-04-22T10:22:20;103714.75;;;15.21;67.27
46942;BME280;32676;52.630;4.896;2023-04-22T10:24:47;103680.38;;;15.13;66.69
46942;BME280;32676;52.630;4.896;2023-04-22T10:27:14;103637.16;;;15.07;66.40
46942;BME280;32676;52.630;4.896;2023-04-22T10:29:45;103605.38;;;15.01;67.08
46942;BME280;32676;52.630;4.896;2023-04-22T10:32:26;103580.72;;;14.95;67.17
46942;BME280;32676;52.630;4.896;2023-04-22T10:35:06;103549.88;;;14.90;67.24
46942;BME280;32676;52.630;4.896;2023-04-22T10:37:32;103550.75;;;14.90;67.57
46942;BME280;32676;52.630;4.896;2023-04-22T10:40:05;103546.34;;;14.89;69.00
46942;BME280;32676;52.630;4.896;2023-04-22T10:42:33;103562.22;;;14.92;70.23
46942;BME280;32676;52.630;4.896;2023-04-22T10:45:00;103561.31;;;14.93;70.79
46942;BME280;32676;52.630;4.896;2023-04-22T10:47:30;103554.25;;;14.92;70.96
46942;BME280;32676;52.630;4.896;2023-04-22T10:52:41;103579.81;;;15.00;70.52
46942;BME280;32676;52.630;4.896;2023-04-22T10:55:08;103565.72;;;14.97;71.08
46942;BME280;32676;52.630;4.896;2023-04-22T10:57:39;103600.94;;;15.06;71.91
46942;BME280;32676;52.630;4.896;2023-04-22T11:03:07;103678.53;;;15.26;73.07
46942;BME280;32676;52.630;4.896;2023-04-22T11:05:34;103734.97;;;15.38;72.86
46942;BME280;32676;52.630;4.896;2023-04-22T11:08:02;103740.25;;;15.42;73.13
46942;BME280;32676;52.630;4.896;2023-04-22T11:10:29;103757.91;;;15.45;72.86
46942;BME280;32676;52.630;4.896;2023-04-22T11:12:56;103753.47;;;15.44;72.99
46942;BME280;32676;52.630;4.896;2023-04-22T11:15:22;103733.19;;;15.40;73.02
46942;BME280;32676;52.630;4.896;2023-04-22T11:17:50;103703.19;;;15.34;71.76
46942;BME280;32676;52.630;4.896;2023-04-22T11:20:18;103667.91;;;15.28;70.43
46942;BME280;32676;52.630;4.896;2023-04-22T11:22:45;103656.44;;;15.24;69.18
46942;BME280;32676;52.630;4.896;2023-04-22T11:25:11;103655.56;;;15.24;68.98
46942;BME280;32676;52.630;4.896;2023-04-22T11:27:39;103632.66;;;15.20;68.56
46942;BME280;32676;52.630;4.896;2023-04-22T11:30:08;103610.59;;;15.16;68.61
46942;BME280;32676;52.630;4.896;2023-04-22T11:32:35;103603.53;;;15.15;68.59
46942;BME280;32676;52.630;4.896;2023-04-22T11:35:02;103589.41;;;15.14;67.71
46942;BME280;32676;52.630;4.896;2023-04-22T11:37:30;103568.28;;;15.10;66.56
46942;BME280;32676;52.630;4.896;2023-04-22T11:39:58;103568.28;;;15.10;66.67
46942;BME280;32676;52.630;4.896;2023-04-22T11:42:24;103552.41;;;15.07;66.03
46942;BME280;32676;52.630;4.896;2023-04-22T11:44:50;103534.78;;;15.03;65.47
46942;BME280;32676;52.630;4.896;2023-04-22T11:47:17;103525.94;;;15.01;65.63
46942;BME280;32676;52.630;4.896;2023-04-22T11:49:53;103506.53;;;14.98;66.10
46942;BME280;32676;52.630;4.896;2023-04-22T11:52:19;103473.97;;;14.90;66.60
46942;BME280;32676;52.630;4.896;2023-04-22T11:54:47;103438.72;;;14.85;66.67
46942;BME280;32676;52.630;4.896;2023-04-22T11:57:13;103384.09;;;14.73;66.27
46942;BME280;32676;52.630;4.896;2023-04-22T11:59:41;103332.16;;;14.63;66.59
46942;BME280;32676;52.630;4.896;2023-04-22T12:02:08;103293.38;;;14.54;66.95
46942;BME280;32676;52.630;4.896;2023-04-22T12:04:34;103258.19;;;14.46;67.79
46942;BME280;32676;52.630;4.896;2023-04-22T12:07:01;103173.72;;;14.28;68.01
46942;BME280;32676;52.630;4.896;2023-04-22T12:09:28;103105.13;;;14.12;68.46
46942;BME280;32676;52.630;4.896;2023-04-22T12:11:56;103044.44;;;13.98;68.85
46942;BME280;32676;52.630;4.896;2023-04-22T12:14:26;102999.63;;;13.88;69.61
46942;BME280;32676;52.630;4.896;2023-04-22T12:16:54;102942.53;;;13.77;70.06
46942;BME280;32676;52.630;4.896;2023-04-22T12:19:23;102895.09;;;13.65;71.14
46942;BME280;32676;52.630;4.896;2023-04-22T12:21:49;102839.75;;;13.53;71.41
46942;BME280;32676;52.630;4.896;2023-04-22T12:24:16;102798.47;;;13.46;71.50
46942;BME280;32676;52.630;4.896;2023-04-22T12:26:46;102771.25;;;13.40;71.52
46942;BME280;32676;52.630;4.896;2023-04-22T12:29:13;102720.34;;;13.28;71.62
46942;BME280;32676;52.630;4.896;2023-04-22T12:31:40;102659.81;;;13.14;71.58
46942;BME280;32676;52.630;4.896;2023-04-22T12:34:06;102594.03;;;12.98;72.12
46942;BME280;32676;52.630;4.896;2023-04-22T12:36:32;102545.84;;;12.85;72.61
46942;BME280;32676;52.630;4.896;2023-04-22T12:38:59;102483.59;;;12.74;73.22
46942;BME280;32676;52.630;4.896;2023-04-22T12:41:25;102430.16;;;12.61;73.25
46942;BME280;32676;52.630;4.896;2023-04-22T12:43:51;102382.84;;;12.52;73.29
46942;BME280;32676;52.630;4.896;2023-04-22T12:46:20;102330.31;;;12.38;74.02
46942;BME280;32676;52.630;4.896;2023-04-22T12:48:46;102287.38;;;12.29;74.65
46942;BME280;32676;52.630;4.896;2023-04-22T12:51:13;102233.97;;;12.18;75.82
46942;BME280;32676;52.630;4.896;2023-04-22T12:53:39;102163.97;;;12.02;75.75
46942;BME280;32676;52.630;4.896;2023-04-22T12:56:05;102145.66;;;11.96;76.29
46942;BME280;32676;52.630;4.896;2023-04-22T12:58:31;102089.63;;;11.84;76.93